Arkville, New York
Current Conditions -  °F | °C
As of 5:55 PM on Saturday 20 Dec 2014 (Local Time) from KMSV Reporting Station
Overcast Overcast  
Wind Chill: -3°   Ceiling: 1500
Heat Index: -3°   Visibility: 10mi
Dew Point: -6°   Wind: 0mph
Humidity: 80%   Direction: NA
Pressure: 30.22"   Gusts: NA
Location:  42.15°N, 74.62°W
Report Text: KMSV 202255Z AUTO 00000KT 10SM OVC015 M03/M06 A3022 RMK AO1
Loading
Personal Weather Stations






























Interactive Weather Map New forecast layout! Learn more

10-Day Weather Forecast

Advertisements
Track Severe Weather on mobile